Time;durP1;ratioP1;P1;durP2;ratioP2;P2;SDS_P1;SDS_P2;PMS_P1;PMS_P2;Temp;Humidity;BMP_temperature;BMP_pressure;BME280_temperature;BME280_humidity;BME280_pressure;Samples;Min_cycle;Max_cycle;Signal;HPM_P1;HPM_P2
2023/11/14 00:02:04;;;;;;;28.73;5.38;;;10.30;99.90;;;;;;5092189;28;20103;-62
2023/11/14 00:04:29;;;;;;;31.15;6.90;;;10.30;99.90;;;;;;5090276;28;20070;-62
2023/11/14 00:06:55;;;;;;;27.70;7.15;;;10.30;99.90;;;;;;5091409;28;20063;-62
2023/11/14 00:09:20;;;;;;;25.23;5.82;;;10.30;99.90;;;;;;5091074;28;20028;-62
2023/11/14 00:11:46;;;;;;;30.08;6.75;;;10.40;99.90;;;;;;5086700;28;20036;-62
2023/11/14 00:14:11;;;;;;;28.55;5.57;;;10.40;99.90;;;;;;5086063;28;20058;-62
2023/11/14 00:16:37;;;;;;;35.03;5.32;;;10.40;99.90;;;;;;5088798;28;20081;-63
2023/11/14 00:19:03;;;;;;;25.60;4.57;;;10.40;99.90;;;;;;5082032;28;20380;-63
2023/11/14 00:21:29;;;;;;;31.25;6.53;;;10.40;99.90;;;;;;5088987;28;20032;-62
2023/11/14 00:23:54;;;;;;;31.27;6.22;;;10.40;99.90;;;;;;5090327;28;20034;-63
2023/11/14 00:26:20;;;;;;;25.27;5.68;;;10.40;99.90;;;;;;5090447;28;20099;-63
2023/11/14 00:28:46;;;;;;;28.67;5.47;;;10.40;99.90;;;;;;5091010;28;20043;-63
2023/11/14 00:31:11;;;;;;;34.60;5.53;;;10.40;99.90;;;;;;5090741;28;20028;-63
2023/11/14 00:33:37;;;;;;;29.77;6.97;;;10.40;99.90;;;;;;5089791;28;20426;-62
2023/11/14 00:36:03;;;;;;;36.03;6.10;;;10.40;99.90;;;;;;5089675;28;20404;-62
2023/11/14 00:38:28;;;;;;;37.33;6.35;;;10.40;99.90;;;;;;5088836;28;20032;-62
2023/11/14 00:40:54;;;;;;;32.30;5.82;;;10.50;99.90;;;;;;5086705;28;20100;-62
2023/11/14 00:43:20;;;;;;;27.52;5.57;;;10.50;99.90;;;;;;5085813;28;20047;-63
2023/11/14 00:45:45;;;;;;;31.50;5.32;;;10.60;99.90;;;;;;5090104;28;20024;-63
2023/11/14 00:48:11;;;;;;;29.25;6.18;;;10.60;99.90;;;;;;5090087;28;20028;-63
2023/11/14 00:50:36;;;;;;;32.60;5.55;;;10.60;99.90;;;;;;5089737;28;20020;-63
2023/11/14 00:53:02;;;;;;;26.48;5.57;;;10.60;99.90;;;;;;5081673;28;20562;-63
2023/11/14 00:55:27;;;;;;;29.65;6.03;;;10.60;99.90;;;;;;5089422;28;20088;-63
2023/11/14 00:57:53;;;;;;;32.60;5.38;;;10.70;99.90;;;;;;5090345;28;20024;-63
2023/11/14 01:00:19;;;;;;;24.20;5.75;;;10.80;99.90;;;;;;5089751;28;20058;-63
2023/11/14 01:02:45;;;;;;;29.70;7.20;;;10.70;99.90;;;;;;5088032;28;20017;-62
2023/11/14 01:05:11;;;;;;;32.45;5.93;;;10.70;99.90;;;;;;5089481;28;20167;-63
2023/11/14 01:07:37;;;;;;;29.17;5.97;;;10.80;99.90;;;;;;5089993;28;20046;-63
2023/11/14 01:10:03;;;;;;;32.65;5.32;;;10.80;99.90;;;;;;5089456;28;20027;-63
2023/11/14 01:12:29;;;;;;;26.58;5.38;;;10.80;99.90;;;;;;5089783;28;20028;-63
2023/11/14 01:14:54;;;;;;;26.38;5.22;;;10.80;99.90;;;;;;5088040;28;20039;-63
2023/11/14 01:17:20;;;;;;;21.60;6.38;;;10.90;99.90;;;;;;5088108;28;20027;-63
2023/11/14 01:19:46;;;;;;;22.92;6.57;;;10.90;99.90;;;;;;5089557;28;20107;-62
2023/11/14 01:22:12;;;;;;;23.00;5.35;;;10.90;99.90;;;;;;5088241;28;20028;-63
2023/11/14 01:24:37;;;;;;;23.15;5.28;;;11.00;99.90;;;;;;5088196;28;20393;-62
2023/11/14 01:27:03;;;;;;;30.65;6.45;;;11.00;99.90;;;;;;5089523;28;20073;-62
2023/11/14 01:29:29;;;;;;;24.88;5.70;;;11.00;99.90;;;;;;5087358;28;20024;-63
2023/11/14 01:31:55;;;;;;;29.63;6.30;;;11.10;99.90;;;;;;5081194;28;20527;-63
2023/11/14 01:34:20;;;;;;;33.13;6.80;;;11.10;99.90;;;;;;5079980;28;20288;-62
2023/11/14 01:36:46;;;;;;;31.30;6.05;;;11.00;99.90;;;;;;5088006;28;20119;-62
2023/11/14 01:39:11;;;;;;;35.95;6.35;;;11.20;99.90;;;;;;5089019;28;20024;-62
2023/11/14 01:41:37;;;;;;;25.77;5.50;;;11.20;99.90;;;;;;5087987;28;20107;-63
2023/11/14 01:44:03;;;;;;;25.55;6.22;;;11.10;99.90;;;;;;5090156;28;20016;-62
2023/11/14 01:46:31;;;;;;;35.28;6.55;;;11.10;99.90;;;;;;5089071;28;20066;-62
2023/11/14 01:48:58;;;;;;;29.98;7.35;;;11.10;99.90;;;;;;5089804;28;20032;-62
2023/11/14 01:51:25;;;;;;;28.13;5.63;;;11.20;99.90;;;;;;5089784;28;20028;-62
2023/11/14 01:53:54;;;;;;;33.00;6.75;;;11.20;99.90;;;;;;5087673;28;20024;-63
2023/11/14 01:56:21;;;;;;;31.30;6.45;;;11.20;99.90;;;;;;5089444;28;20469;-63
2023/11/14 01:58:48;;;;;;;31.52;6.40;;;11.20;99.90;;;;;;5090132;28;20067;-63
2023/11/14 02:01:14;;;;;;;24.80;6.75;;;11.30;99.90;;;;;;5089599;28;20409;-63
2023/11/14 02:03:40;;;;;;;30.17;7.18;;;11.40;99.90;;;;;;5089116;28;20031;-63
2023/11/14 02:06:08;;;;;;;26.38;5.40;;;11.40;99.90;;;;;;5089202;28;20032;-63
2023/11/14 02:08:34;;;;;;;29.35;6.30;;;11.30;99.90;;;;;;5089010;28;20028;-63
2023/11/14 02:11:00;;;;;;;23.85;5.85;;;11.40;99.90;;;;;;5089184;28;20087;-63
2023/11/14 02:13:26;;;;;;;35.92;6.00;;;11.30;99.90;;;;;;5088882;28;20024;-62
2023/11/14 02:15:51;;;;;;;27.10;6.35;;;11.30;99.90;;;;;;5085196;28;20087;-63
2023/11/14 02:18:18;;;;;;;35.00;6.47;;;11.40;99.90;;;;;;5085068;28;20120;-64
2023/11/14 02:20:44;;;;;;;28.38;6.57;;;11.40;99.90;;;;;;5088704;28;20024;-62
2023/11/14 02:23:11;;;;;;;26.08;6.20;;;11.40;99.90;;;;;;5086987;28;20039;-62
2023/11/14 02:25:37;;;;;;;29.45;5.78;;;11.40;99.90;;;;;;5088092;28;20028;-62
2023/11/14 02:28:03;;;;;;;27.10;5.65;;;11.40;99.90;;;;;;5088307;28;20324;-62
2023/11/14 02:30:28;;;;;;;28.55;5.72;;;11.50;99.90;;;;;;5088576;28;20020;-62
2023/11/14 02:32:54;;;;;;;22.65;5.43;;;11.40;99.90;;;;;;5086638;28;20027;-62
2023/11/14 02:35:19;;;;;;;30.73;6.28;;;11.50;99.90;;;;;;5087922;28;20016;-63
2023/11/14 02:37:46;;;;;;;27.17;5.57;;;11.50;99.90;;;;;;5088238;28;20028;-63
2023/11/14 02:40:13;;;;;;;28.17;6.35;;;11.50;99.90;;;;;;5088207;28;20016;-63
2023/11/14 02:42:41;;;;;;;23.20;5.57;;;11.50;99.90;;;;;;5087954;28;20073;-63
2023/11/14 02:45:08;;;;;;;25.17;6.05;;;11.50;99.90;;;;;;5088164;28;20028;-64
2023/11/14 02:47:33;;;;;;;30.30;5.68;;;11.50;99.90;;;;;;5087907;28;20056;-63
2023/11/14 02:50:29;;;;;;;33.97;5.97;;;11.50;99.90;;;;;;5087945;28;20055;-63
2023/11/14 02:52:55;;;;;;;31.25;5.50;;;11.50;99.90;;;;;;5080423;28;20024;-67
2023/11/14 02:55:21;;;;;;;24.05;5.32;;;11.50;99.90;;;;;;5087994;28;20024;-66
2023/11/14 02:57:46;;;;;;;16.25;5.13;;;11.60;99.90;;;;;;5085970;28;20397;-65
2023/11/14 03:00:16;;;;;;;36.00;6.00;;;11.60;99.90;;;;;;5071246;28;20127;-66
2023/11/14 03:02:43;;;;;;;24.70;5.10;;;11.60;99.90;;;;;;5069772;28;20025;-66
2023/11/14 03:05:08;;;;;;;20.33;6.00;;;11.60;99.90;;;;;;5071461;28;20048;-66
2023/11/14 03:07:34;;;;;;;21.98;5.25;;;11.70;99.90;;;;;;5070966;28;20012;-65
2023/11/14 03:10:03;;;;;;;22.88;5.60;;;11.70;99.90;;;;;;5068743;28;20025;-65
2023/11/14 03:12:29;;;;;;;23.85;5.15;;;11.80;99.90;;;;;;5065799;28;20058;-66
2023/11/14 03:14:55;;;;;;;25.75;6.00;;;11.70;99.90;;;;;;5064820;28;20136;-67
2023/11/14 03:17:20;;;;;;;21.20;5.07;;;11.70;99.90;;;;;;5066360;28;20021;-66
2023/11/14 03:19:47;;;;;;;31.48;5.90;;;11.70;99.90;;;;;;5069618;28;20040;-66
2023/11/14 03:22:14;;;;;;;32.10;5.20;;;11.70;99.90;;;;;;5069511;28;20105;-66
2023/11/14 03:24:40;;;;;;;29.10;6.88;;;11.70;99.90;;;;;;5066240;28;20028;-66
2023/11/14 03:27:08;;;;;;;30.38;6.65;;;11.70;99.90;;;;;;5069344;28;20025;-66
2023/11/14 03:29:35;;;;;;;21.45;5.68;;;11.70;99.90;;;;;;5062133;28;20481;-66
2023/11/14 03:32:00;;;;;;;22.00;5.45;;;11.70;99.90;;;;;;5062764;28;20035;-66
2023/11/14 03:34:26;;;;;;;32.15;6.93;;;11.70;99.90;;;;;;5067608;28;20338;-65
2023/11/14 03:36:53;;;;;;;32.25;6.32;;;11.70;99.90;;;;;;5065206;28;20016;-66
2023/11/14 03:39:19;;;;;;;33.22;6.20;;;11.60;99.90;;;;;;5070146;28;20513;-64
2023/11/14 03:41:45;;;;;;;32.20;7.28;;;11.70;99.90;;;;;;5071942;28;20040;-64
2023/11/14 03:44:11;;;;;;;33.33;6.90;;;11.70;99.90;;;;;;5071666;28;20074;-64
2023/11/14 03:46:36;;;;;;;24.42;5.50;;;11.70;99.90;;;;;;5071220;28;20033;-64
2023/11/14 03:49:02;;;;;;;23.73;5.28;;;11.70;99.90;;;;;;5071330;28;20101;-64
2023/11/14 03:51:27;;;;;;;28.70;6.28;;;11.70;99.90;;;;;;5071206;28;20059;-64
2023/11/14 03:53:53;;;;;;;31.70;5.95;;;11.70;99.90;;;;;;5071760;28;20025;-64
2023/11/14 03:56:18;;;;;;;27.50;5.63;;;11.60;99.90;;;;;;5071997;28;20063;-64
2023/11/14 03:58:44;;;;;;;26.92;6.22;;;11.70;99.90;;;;;;5071943;28;20019;-64
2023/11/14 04:01:09;;;;;;;28.27;5.50;;;11.70;99.90;;;;;;5071380;28;20450;-64
2023/11/14 04:03:37;;;;;;;27.70;5.55;;;11.70;99.90;;;;;;5071225;28;20111;-64
2023/11/14 04:06:03;;;;;;;23.95;6.65;;;11.70;99.90;;;;;;5069238;28;20028;-64
2023/11/14 04:08:28;;;;;;;24.73;4.95;;;11.70;99.90;;;;;;5065387;28;20029;-64
2023/11/14 04:10:54;;;;;;;30.05;6.60;;;11.70;99.90;;;;;;5067469;28;20454;-65
2023/11/14 04:13:19;;;;;;;25.15;6.75;;;11.70;99.90;;;;;;5067335;28;20385;-66
2023/11/14 04:15:45;;;;;;;31.42;6.35;;;11.70;99.90;;;;;;5067557;28;20103;-66
2023/11/14 04:18:11;;;;;;;26.83;5.53;;;11.70;99.90;;;;;;5071295;28;20027;-65
2023/11/14 04:20:36;;;;;;;25.52;6.35;;;11.70;99.90;;;;;;5069246;28;20175;-65
2023/11/14 04:23:02;;;;;;;28.55;5.78;;;11.70;99.90;;;;;;5070748;28;20052;-65
2023/11/14 04:25:27;;;;;;;30.98;6.00;;;11.70;99.90;;;;;;5070014;28;20020;-66
2023/11/14 04:27:53;;;;;;;26.95;4.90;;;11.70;99.90;;;;;;5069854;28;20028;-65
2023/11/14 04:30:18;;;;;;;22.55;4.72;;;11.70;99.90;;;;;;5068725;28;20035;-65
2023/11/14 04:32:44;;;;;;;23.50;5.38;;;11.60;99.90;;;;;;5069198;28;20450;-64
2023/11/14 04:35:10;;;;;;;23.02;5.65;;;11.60;99.90;;;;;;5068929;28;20021;-65
2023/11/14 04:37:35;;;;;;;20.55;4.90;;;11.60;99.90;;;;;;5070233;28;20025;-65
2023/11/14 04:40:01;;;;;;;28.95;6.15;;;11.60;99.90;;;;;;5070089;28;20028;-65
2023/11/14 04:42:26;;;;;;;26.98;5.57;;;11.60;99.90;;;;;;5070398;28;20381;-65
2023/11/14 04:44:52;;;;;;;32.88;6.47;;;11.60;99.90;;;;;;5068600;28;20078;-65
2023/11/14 04:47:18;;;;;;;36.97;5.80;;;11.60;99.90;;;;;;5069712;28;20090;-65
2023/11/14 04:49:44;;;;;;;21.60;5.07;;;11.60;99.90;;;;;;5069344;28;20020;-66
2023/11/14 04:52:10;;;;;;;25.27;5.72;;;11.60;99.90;;;;;;5069353;28;20051;-65
2023/11/14 04:54:35;;;;;;;20.75;5.38;;;11.60;99.90;;;;;;5069266;28;20024;-65
2023/11/14 04:57:01;;;;;;;27.90;6.63;;;11.60;99.90;;;;;;5069065;28;20321;-66
2023/11/14 04:59:27;;;;;;;23.45;4.70;;;11.50;99.90;;;;;;5068728;28;20186;-65
2023/11/14 05:01:52;;;;;;;19.55;5.00;;;11.50;99.90;;;;;;5069159;28;20477;-65
2023/11/14 05:04:18;;;;;;;23.95;5.70;;;11.50;99.90;;;;;;5069562;28;20456;-65
2023/11/14 05:06:44;;;;;;;22.90;5.30;;;11.50;99.90;;;;;;5068611;28;20460;-65
2023/11/14 05:09:09;;;;;;;21.45;5.43;;;11.50;99.90;;;;;;5068965;28;20287;-66
2023/11/14 05:11:38;;;;;;;21.00;5.22;;;11.50;99.90;;;;;;5069598;28;20077;-66
2023/11/14 05:14:06;;;;;;;25.83;5.35;;;11.40;99.90;;;;;;5069262;28;20073;-66
2023/11/14 05:16:40;;;;;;;23.88;5.63;;;11.40;99.90;;;;;;5069053;28;20016;-66
2023/11/14 05:19:07;;;;;;;28.25;5.72;;;11.40;99.90;;;;;;5068860;28;20037;-66
2023/11/14 05:21:33;;;;;;;27.77;6.60;;;11.30;99.90;;;;;;5068443;28;20070;-67
2023/11/14 05:23:59;;;;;;;29.95;7.03;;;11.30;99.90;;;;;;5067447;28;20028;-68
2023/11/14 05:26:24;;;;;;;28.55;5.63;;;11.20;99.90;;;;;;5068539;28;20130;-67
2023/11/14 05:28:50;;;;;;;25.55;6.18;;;11.20;99.90;;;;;;5069256;28;20370;-67
2023/11/14 05:31:15;;;;;;;37.90;6.32;;;11.20;99.90;;;;;;5068983;28;20059;-67
2023/11/14 05:33:41;;;;;;;30.10;6.38;;;11.20;99.90;;;;;;5064352;28;20021;-67
2023/11/14 05:36:07;;;;;;;32.92;6.47;;;11.30;99.90;;;;;;5066402;28;20438;-67
2023/11/14 05:38:33;;;;;;;29.33;5.72;;;11.30;99.90;;;;;;5067840;28;20031;-67
2023/11/14 05:40:58;;;;;;;25.85;5.07;;;11.30;99.90;;;;;;5067939;28;20047;-62
2023/11/14 05:43:24;;;;;;;29.40;6.13;;;11.30;99.90;;;;;;5067890;28;20477;-61
2023/11/14 05:45:51;;;;;;;23.95;5.53;;;11.30;99.90;;;;;;5068572;28;20313;-62
2023/11/14 05:48:19;;;;;;;36.42;6.32;;;11.30;99.90;;;;;;5068272;28;20024;-62
2023/11/14 05:50:46;;;;;;;30.13;6.25;;;11.40;99.90;;;;;;5066619;28;20119;-68
2023/11/14 05:53:11;;;;;;;26.17;5.40;;;11.40;99.90;;;;;;5067948;28;20424;-67
2023/11/14 05:55:37;;;;;;;26.83;5.28;;;11.40;99.90;;;;;;5067431;28;20021;-67
2023/11/14 05:58:03;;;;;;;24.00;5.57;;;11.40;99.90;;;;;;5067966;28;20112;-68
2023/11/14 06:00:28;;;;;;;28.05;5.60;;;11.40;99.90;;;;;;5066662;28;20123;-67
2023/11/14 06:02:54;;;;;;;20.20;4.72;;;11.40;99.90;;;;;;5068420;28;20052;-66
2023/11/14 06:05:22;;;;;;;25.83;4.85;;;11.40;99.90;;;;;;5066363;28;20374;-67
2023/11/14 06:07:48;;;;;;;23.70;5.60;;;11.40;99.90;;;;;;5067770;28;20023;-67
2023/11/14 06:10:14;;;;;;;24.67;6.10;;;11.40;99.90;;;;;;5066717;28;20482;-67
2023/11/14 06:12:39;;;;;;;21.77;4.82;;;11.40;99.90;;;;;;5067746;28;20047;-67
2023/11/14 06:15:07;;;;;;;24.08;5.15;;;11.40;99.90;;;;;;5067558;28;20017;-67
2023/11/14 06:17:33;;;;;;;15.35;4.05;;;11.40;99.90;;;;;;5067481;28;20493;-67
2023/11/14 06:19:58;;;;;;;19.95;4.70;;;11.50;99.90;;;;;;5067778;28;20027;-68
2023/11/14 06:22:24;;;;;;;21.33;4.90;;;11.40;99.90;;;;;;5067681;28;20095;-67
2023/11/14 06:24:50;;;;;;;26.55;5.95;;;11.30;99.90;;;;;;5067885;28;20383;-67
2023/11/14 06:27:16;;;;;;;21.42;5.82;;;11.20;99.90;;;;;;5066028;28;20116;-67
2023/11/14 06:29:42;;;;;;;25.38;5.82;;;11.10;99.90;;;;;;5067886;28;20108;-67
2023/11/14 06:32:08;;;;;;;29.30;5.78;;;11.10;99.90;;;;;;5068324;28;20035;-67
2023/11/14 06:34:33;;;;;;;26.67;6.13;;;11.10;99.90;;;;;;5070925;28;20020;-67
2023/11/14 06:36:59;;;;;;;27.45;5.75;;;11.10;99.90;;;;;;5071437;28;20048;-67
2023/11/14 06:39:24;;;;;;;29.00;6.05;;;11.00;99.90;;;;;;5070795;28;20035;-68
2023/11/14 06:41:50;;;;;;;31.48;6.13;;;11.00;99.90;;;;;;5072223;28;20066;-67
2023/11/14 06:44:19;;;;;;;32.17;6.50;;;11.00;99.90;;;;;;5072062;28;20065;-67
2023/11/14 06:46:46;;;;;;;31.05;5.93;;;11.00;99.90;;;;;;5069550;28;20060;-67
2023/11/14 06:49:12;;;;;;;23.23;6.30;;;11.00;99.90;;;;;;5068595;28;20052;-67
2023/11/14 06:51:38;;;;;;;29.35;5.72;;;11.00;99.90;;;;;;5069938;28;20040;-67
2023/11/14 06:54:04;;;;;;;25.90;6.75;;;11.10;99.90;;;;;;5070031;28;20078;-66
2023/11/14 06:56:29;;;;;;;35.22;5.93;;;11.10;99.90;;;;;;5070715;28;20042;-67
2023/11/14 06:58:55;;;;;;;23.17;5.50;;;11.10;99.90;;;;;;5071188;28;20037;-67
2023/11/14 07:01:21;;;;;;;23.60;5.70;;;11.10;99.90;;;;;;5068980;28;20216;-67
2023/11/14 07:03:47;;;;;;;25.38;5.80;;;11.20;99.90;;;;;;5070061;28;20051;-67
2023/11/14 07:06:13;;;;;;;26.75;5.57;;;11.30;99.90;;;;;;5071310;28;20052;-67
2023/11/14 07:08:39;;;;;;;23.75;6.47;;;11.40;99.90;;;;;;5070308;28;20066;-67
2023/11/14 07:11:05;;;;;;;27.77;5.90;;;11.40;99.90;;;;;;5070755;28;20075;-67
2023/11/14 07:13:31;;;;;;;30.55;6.82;;;11.50;99.90;;;;;;5069334;28;20367;-67
2023/11/14 07:15:57;;;;;;;21.27;5.53;;;11.50;99.90;;;;;;5070643;28;20367;-67
2023/11/14 07:18:22;;;;;;;21.15;5.20;;;11.50;99.90;;;;;;5071059;28;20389;-67
2023/11/14 07:20:48;;;;;;;36.53;6.63;;;11.50;99.90;;;;;;5070449;28;20111;-68
2023/11/14 07:23:14;;;;;;;31.90;5.30;;;11.60;99.90;;;;;;5068544;28;20687;-68
2023/11/14 07:25:43;;;;;;;19.05;5.72;;;11.60;99.90;;;;;;5067384;28;20470;-68
2023/11/14 07:28:11;;;;;;;23.48;5.30;;;11.60;99.90;;;;;;5065591;28;20108;-67
2023/11/14 07:30:37;;;;;;;19.65;5.20;;;11.70;99.90;;;;;;5069689;28;20059;-67
2023/11/14 07:33:03;;;;;;;27.10;5.45;;;11.80;99.90;;;;;;5070807;28;20547;-67
2023/11/14 07:35:28;;;;;;;31.60;6.30;;;11.80;99.90;;;;;;5070129;28;20108;-66
2023/11/14 07:37:54;;;;;;;24.25;4.95;;;11.90;99.90;;;;;;5071106;28;20029;-66
2023/11/14 07:40:20;;;;;;;22.90;4.78;;;11.90;99.90;;;;;;5066790;28;20036;-66
2023/11/14 07:42:46;;;;;;;22.23;4.53;;;11.90;99.90;;;;;;5069463;28;20035;-66
2023/11/14 07:45:11;;;;;;;32.03;4.90;;;11.90;99.90;;;;;;5069528;28;20474;-66
2023/11/14 07:47:37;;;;;;;24.33;5.05;;;11.90;99.90;;;;;;5069984;28;20113;-66
2023/11/14 07:50:04;;;;;;;27.02;5.55;;;11.90;99.90;;;;;;5069408;28;20128;-66
2023/11/14 07:52:30;;;;;;;16.85;5.18;;;11.90;99.90;;;;;;5067967;28;20462;-66
2023/11/14 07:54:57;;;;;;;26.52;5.07;;;11.90;99.90;;;;;;5069745;28;20129;-67
2023/11/14 07:57:24;;;;;;;26.50;5.20;;;12.00;99.90;;;;;;5069860;28;20073;-60
2023/11/14 07:59:49;;;;;;;24.42;4.90;;;12.00;99.90;;;;;;5070307;28;20028;-60
2023/11/14 08:02:15;;;;;;;20.27;5.25;;;12.00;99.90;;;;;;5070244;28;20369;-59
2023/11/14 08:04:41;;;;;;;16.02;4.88;;;12.00;99.90;;;;;;5068671;28;20036;-60
2023/11/14 08:07:07;;;;;;;20.95;5.72;;;12.00;99.90;;;;;;5068345;28;20024;-59
2023/11/14 08:09:33;;;;;;;15.30;4.28;;;12.00;99.90;;;;;;5068222;28;20028;-59
2023/11/14 08:11:58;;;;;;;18.48;4.70;;;12.00;99.90;;;;;;5069190;28;20032;-59
2023/11/14 08:14:24;;;;;;;25.98;4.50;;;12.00;99.90;;;;;;5069496;28;20032;-59
2023/11/14 08:16:50;;;;;;;18.27;4.22;;;12.10;99.90;;;;;;5068733;28;20312;-60
2023/11/14 08:19:15;;;;;;;18.33;5.00;;;12.20;99.90;;;;;;5069507;28;20573;-59
2023/11/14 08:21:41;;;;;;;27.67;5.80;;;12.20;99.90;;;;;;5069837;28;20047;-60
2023/11/14 08:24:07;;;;;;;20.42;5.55;;;12.20;99.90;;;;;;5069586;28;20048;-59
2023/11/14 08:26:32;;;;;;;22.60;4.90;;;12.20;99.90;;;;;;5069174;28;20152;-60
2023/11/14 08:28:58;;;;;;;22.40;4.25;;;12.20;99.90;;;;;;5069469;28;20029;-61
2023/11/14 08:31:23;;;;;;;26.35;5.72;;;12.30;99.90;;;;;;5069383;28;20021;-59
2023/11/14 08:33:49;;;;;;;16.55;4.43;;;12.30;99.90;;;;;;5069205;28;20097;-59
2023/11/14 08:36:16;;;;;;;24.83;5.25;;;12.30;99.90;;;;;;5069264;28;20098;-60
2023/11/14 08:38:41;;;;;;;20.88;4.88;;;12.40;99.90;;;;;;5069342;28;20194;-60
2023/11/14 08:41:07;;;;;;;28.42;4.90;;;12.40;99.90;;;;;;5067725;28;20423;-60
2023/11/14 08:43:34;;;;;;;34.00;5.68;;;12.40;99.90;;;;;;5069212;28;20405;-59
2023/11/14 08:46:00;;;;;;;19.23;5.07;;;12.50;99.90;;;;;;5068259;28;20020;-60
2023/11/14 08:48:26;;;;;;;28.40;6.03;;;12.50;99.90;;;;;;5066325;28;20036;-59
2023/11/14 08:50:51;;;;;;;23.42;5.53;;;12.50;99.90;;;;;;5065260;28;20043;-59
2023/11/14 08:53:17;;;;;;;27.75;4.82;;;12.50;99.90;;;;;;5066135;28;20122;-59
2023/11/14 08:55:42;;;;;;;25.40;5.97;;;12.50;99.90;;;;;;5067644;28;20024;-60
2023/11/14 08:58:08;;;;;;;27.88;5.13;;;12.50;99.90;;;;;;5068763;28;20050;-59
2023/11/14 09:00:35;;;;;;;24.40;6.43;;;12.60;99.90;;;;;;5067167;28;20017;-60
2023/11/14 09:03:01;;;;;;;28.25;4.85;;;12.60;99.90;;;;;;5068474;28;20035;-60
2023/11/14 09:05:28;;;;;;;29.35;5.97;;;12.70;99.90;;;;;;5068064;28;20457;-60
2023/11/14 09:07:54;;;;;;;26.20;4.88;;;12.70;99.90;;;;;;5065128;28;20107;-60
2023/11/14 09:10:19;;;;;;;32.17;6.10;;;12.70;99.90;;;;;;5067164;28;20024;-60
2023/11/14 09:12:45;;;;;;;25.75;5.40;;;12.80;99.90;;;;;;5066613;28;20108;-60
2023/11/14 09:15:13;;;;;;;24.60;5.47;;;12.80;99.90;;;;;;5066200;28;20025;-60
2023/11/14 09:17:39;;;;;;;24.67;5.05;;;12.90;99.90;;;;;;5065987;28;20031;-60
2023/11/14 09:20:06;;;;;;;32.50;5.93;;;13.00;99.90;;;;;;5065934;28;20019;-60
2023/11/14 09:22:32;;;;;;;30.20;5.47;;;13.10;99.90;;;;;;5066875;28;20111;-60
2023/11/14 09:24:57;;;;;;;30.58;6.32;;;13.30;99.90;;;;;;5068770;28;20436;-61
2023/11/14 09:27:24;;;;;;;30.88;6.00;;;13.40;99.90;;;;;;5067845;28;20021;-59
2023/11/14 09:29:50;;;;;;;31.60;5.90;;;13.50;99.90;;;;;;5068281;28;20020;-60
2023/11/14 09:32:19;;;;;;;28.40;5.28;;;13.50;99.90;;;;;;5068375;28;20025;-60
2023/11/14 09:34:48;;;;;;;26.70;5.50;;;13.40;99.90;;;;;;5067081;28;20079;-60
2023/11/14 09:37:14;;;;;;;16.95;5.07;;;13.30;99.90;;;;;;5067638;28;20024;-60
2023/11/14 09:39:39;;;;;;;23.77;6.28;;;13.20;99.90;;;;;;5068027;28;20031;-60
2023/11/14 09:42:05;;;;;;;26.05;5.38;;;13.30;99.90;;;;;;5067942;28;20020;-60
2023/11/14 09:44:31;;;;;;;20.30;5.43;;;13.30;99.90;;;;;;5067392;28;20021;-59
2023/11/14 09:46:59;;;;;;;31.80;6.47;;;13.30;99.90;;;;;;5067529;28;20021;-59
2023/11/14 09:49:26;;;;;;;18.50;4.72;;;13.30;99.90;;;;;;5066545;28;20043;-59
2023/11/14 09:51:51;;;;;;;26.13;6.68;;;13.30;99.90;;;;;;5067834;28;20493;-59
2023/11/14 09:54:17;;;;;;;16.35;5.45;;;13.20;99.90;;;;;;5068181;28;20029;-59
2023/11/14 09:56:50;;;;;;;27.40;6.07;;;13.10;99.90;;;;;;5065552;28;20020;-60
2023/11/14 09:59:18;;;;;;;26.95;6.00;;;13.00;99.90;;;;;;5062536;28;20025;-60
2023/11/14 10:01:44;;;;;;;22.42;5.43;;;12.90;99.90;;;;;;5065215;28;20033;-61
2023/11/14 10:04:10;;;;;;;25.48;6.32;;;12.60;99.90;;;;;;5063030;28;20035;-60
2023/11/14 10:06:42;;;;;;;23.58;5.20;;;12.40;99.90;;;;;;5066679;28;20024;-60
2023/11/14 10:09:16;;;;;;;24.67;6.97;;;12.30;99.90;;;;;;5064293;28;20086;-61
2023/11/14 10:11:43;;;;;;;25.30;6.40;;;12.10;99.90;;;;;;5064653;28;20381;-60
2023/11/14 10:14:09;;;;;;;21.33;5.53;;;12.10;99.90;;;;;;5068786;28;20027;-60
2023/11/14 10:16:36;;;;;;;30.27;6.32;;;12.00;99.90;;;;;;5068040;28;20386;-60
2023/11/14 10:19:11;;;;;;;22.95;6.15;;;12.10;99.90;;;;;;5068378;28;20024;-60
2023/11/14 10:21:36;;;;;;;27.55;7.50;;;12.10;99.90;;;;;;5068052;28;20105;-60
2023/11/14 10:24:10;;;;;;;24.88;5.68;;;12.20;99.90;;;;;;5067772;28;20056;-60
2023/11/14 10:26:52;;;;;;;27.10;5.78;;;12.30;99.90;;;;;;5064719;28;20127;-60
2023/11/14 10:29:23;;;;;;;34.90;5.70;;;12.50;99.90;;;;;;5065857;28;20070;-60
2023/11/14 10:31:51;;;;;;;26.90;6.03;;;13.00;99.90;;;;;;5067221;28;20557;-60
2023/11/14 10:34:30;;;;;;;29.13;6.80;;;13.20;99.90;;;;;;5068726;28;20095;-60
2023/11/14 10:36:58;;;;;;;14.18;4.15;;;13.10;99.90;;;;;;5068221;28;20032;-60
2023/11/14 10:39:26;;;;;;;23.33;5.15;;;13.00;99.90;;;;;;5068479;28;20029;-60
2023/11/14 10:41:54;;;;;;;24.38;5.00;;;12.90;99.90;;;;;;5068748;28;20024;-57
2023/11/14 10:44:21;;;;;;;19.95;5.50;;;12.80;99.90;;;;;;5068407;28;20033;-59
2023/11/14 10:46:48;;;;;;;30.85;6.10;;;12.70;99.90;;;;;;5067803;28;20079;-59
2023/11/14 10:49:14;;;;;;;30.92;6.03;;;12.70;99.90;;;;;;5068521;28;20075;-58
2023/11/14 10:51:42;;;;;;;29.75;6.20;;;12.50;99.90;;;;;;5067000;28;20512;-59
2023/11/14 10:54:08;;;;;;;25.13;5.05;;;12.40;99.90;;;;;;5068555;28;20482;-59
2023/11/14 10:56:37;;;;;;;27.52;6.07;;;12.20;99.90;;;;;;5068093;28;20021;-59
2023/11/14 10:59:12;;;;;;;26.75;6.65;;;12.10;99.90;;;;;;5068972;28;20023;-59
2023/11/14 11:01:44;;;;;;;25.17;7.18;;;12.00;99.90;;;;;;5067583;28;20388;-59
2023/11/14 11:04:14;;;;;;;37.97;7.63;;;11.90;99.90;;;;;;5067106;28;20030;-60
2023/11/14 11:06:40;;;;;;;32.37;7.87;;;11.80;99.90;;;;;;5066996;28;20031;-59
2023/11/14 11:09:07;;;;;;;30.52;6.97;;;11.80;99.90;;;;;;5070115;28;20263;-60
2023/11/14 11:11:38;;;;;;;32.78;6.78;;;11.80;99.90;;;;;;5069509;28;20493;-59
2023/11/14 11:14:06;;;;;;;29.30;6.90;;;11.80;99.90;;;;;;5070586;28;20111;-58
2023/11/14 11:16:45;;;;;;;30.75;6.35;;;11.80;99.90;;;;;;5065703;28;20421;-58
2023/11/14 11:19:32;;;;;;;21.77;5.57;;;11.90;99.90;;;;;;5067647;28;20411;-58
2023/11/14 11:22:01;;;;;;;32.65;6.10;;;12.00;99.90;;;;;;5064510;28;20106;-59
2023/11/14 11:24:28;;;;;;;28.60;6.93;;;12.00;99.90;;;;;;5070934;28;20398;-59
2023/11/14 11:27:12;;;;;;;32.95;7.53;;;12.10;99.90;;;;;;5063270;28;20031;-59
2023/11/14 11:29:50;;;;;;;27.27;6.03;;;12.10;99.90;;;;;;5071566;28;20099;-59
2023/11/14 11:32:23;;;;;;;20.38;5.53;;;12.20;99.90;;;;;;5071623;28;20449;-59
2023/11/14 11:35:15;;;;;;;27.08;5.38;;;12.30;99.90;;;;;;5076365;28;20012;-59
2023/11/14 11:37:47;;;;;;;25.45;6.35;;;12.40;99.90;;;;;;5075734;28;20331;-59
2023/11/14 11:40:13;;;;;;;23.90;5.53;;;12.50;99.90;;;;;;5073096;28;20037;-59
2023/11/14 11:42:43;;;;;;;17.15;4.95;;;12.50;99.90;;;;;;5076494;28;20373;-60
2023/11/14 11:45:49;;;;;;;26.90;5.63;;;12.50;99.90;;;;;;5074900;28;20020;-60
2023/11/14 11:48:41;;;;;;;24.88;6.40;;;12.70;99.90;;;;;;5026880;28;20029;-60
2023/11/14 11:51:20;;;;;;;24.27;5.80;;;12.70;99.90;;;;;;5067901;28;20146;-60
2023/11/14 11:53:49;;;;;;;32.30;7.43;;;12.60;99.90;;;;;;5069015;28;20020;-60
2023/11/14 11:56:34;;;;;;;30.05;6.95;;;12.60;99.90;;;;;;5069659;28;20044;-60
2023/11/14 11:59:01;;;;;;;29.45;5.55;;;12.60;99.90;;;;;;5069891;28;20394;-60
2023/11/14 12:01:28;;;;;;;30.30;6.10;;;12.80;99.90;;;;;;5068173;28;20048;-59
2023/11/14 12:04:01;;;;;;;31.90;6.20;;;12.90;99.90;;;;;;5068330;28;20416;-60
2023/11/14 12:06:27;;;;;;;29.88;6.65;;;12.90;99.90;;;;;;5065842;28;20047;-60
2023/11/14 12:08:54;;;;;;;24.55;6.22;;;13.10;99.90;;;;;;5070010;28;20339;-59
2023/11/14 12:11:21;;;;;;;37.60;6.13;;;13.60;99.90;;;;;;5069594;28;20024;-60
2023/11/14 12:13:51;;;;;;;32.10;6.38;;;14.20;99.90;;;;;;5068993;28;20020;-59
2023/11/14 12:16:26;;;;;;;22.42;5.00;;;14.70;99.90;;;;;;5069577;28;20051;-60
2023/11/14 12:18:54;;;;;;;23.05;5.65;;;14.70;99.90;;;;;;5069890;28;20020;-60
2023/11/14 12:21:21;;;;;;;24.40;5.65;;;14.50;99.90;;;;;;5069850;28;20389;-60
2023/11/14 12:23:47;;;;;;;25.67;5.50;;;14.10;99.90;;;;;;5069650;28;20104;-59
2023/11/14 12:26:13;;;;;;;25.83;4.88;;;13.90;99.90;;;;;;5069204;28;20151;-60
2023/11/14 12:28:39;;;;;;;26.38;4.80;;;13.90;99.90;;;;;;5068212;28;20439;-60
2023/11/14 12:31:08;;;;;;;22.65;5.00;;;14.00;99.90;;;;;;5069537;28;20024;-59
2023/11/14 12:33:44;;;;;;;23.10;4.78;;;13.90;99.90;;;;;;5069775;28;20028;-60
2023/11/14 12:36:23;;;;;;;21.70;5.47;;;13.70;99.90;;;;;;5069582;28;20021;-60